createdAt,value
2018-11-11T00:00:20.504Z,100.10
2018-11-11T00:02:51.392Z,104.00
2018-11-11T00:05:20.929Z,102.30
2018-11-11T00:07:50.113Z,94.17
2018-11-11T00:10:35.401Z,112.10
2018-11-11T00:13:04.513Z,104.97
2018-11-11T00:15:33.623Z,113.77
2018-11-11T00:18:02.820Z,113.30
2018-11-11T00:20:31.973Z,113.57
2018-11-11T00:23:01.277Z,109.47
2018-11-11T00:25:30.501Z,115.10
2018-11-11T00:27:59.649Z,118.07
2018-11-11T00:30:28.877Z,132.57
2018-11-11T00:32:58.197Z,114.73
2018-11-11T00:35:27.315Z,119.80
2018-11-11T00:37:56.515Z,115.30
2018-11-11T00:40:25.969Z,120.97
2018-11-11T00:42:55.293Z,117.57
2018-11-11T00:45:24.471Z,132.17
2018-11-11T00:47:53.973Z,122.53
2018-11-11T00:50:23.174Z,135.43
2018-11-11T00:52:52.469Z,124.20
2018-11-11T00:55:21.581Z,117.83
2018-11-11T00:57:50.857Z,125.80
2018-11-11T01:00:20.677Z,122.57
2018-11-11T01:02:50.181Z,140.33
2018-11-11T01:05:19.373Z,133.93
2018-11-11T01:07:49.188Z,145.97
2018-11-11T01:10:18.798Z,132.30
2018-11-11T01:12:47.994Z,139.60
2018-11-11T01:15:17.938Z,152.57
2018-11-11T01:17:47.413Z,140.77
2018-11-11T01:20:17.701Z,127.63
2018-11-11T01:22:47.761Z,133.73
2018-11-11T01:25:17.713Z,139.90
2018-11-11T01:27:46.882Z,149.07
2018-11-11T01:30:16.407Z,175.50
2018-11-11T01:32:45.606Z,175.07
2018-11-11T01:35:16.237Z,164.17
2018-11-11T01:37:45.771Z,178.90
2018-11-11T01:40:15.277Z,179.77
2018-11-11T01:42:44.921Z,185.27
2018-11-11T01:45:18.264Z,176.60
2018-11-11T01:47:48.397Z,161.00
2018-11-11T01:50:17.682Z,172.87
2018-11-11T01:52:46.933Z,177.97
2018-11-11T01:55:16.104Z,175.27
2018-11-11T01:57:45.324Z,195.43
2018-11-11T02:00:17.608Z,184.47
2018-11-11T02:02:48.274Z,206.90
2018-11-11T02:05:17.433Z,197.93
2018-11-11T02:07:47.256Z,215.67
2018-11-11T02:10:16.401Z,177.50
2018-11-11T02:12:46.517Z,180.53
2018-11-11T02:15:17.085Z,192.80
2018-11-11T02:17:46.385Z,196.83
2018-11-11T02:20:16.735Z,174.87
2018-11-11T02:22:47.432Z,203.47
2018-11-11T02:25:16.658Z,178.80
2018-11-11T02:27:47.712Z,185.83
2018-11-11T02:30:19.212Z,190.47
2018-11-11T02:32:48.937Z,190.70
2018-11-11T02:35:18.169Z,196.13
2018-11-11T02:37:47.445Z,177.80
2018-11-11T02:40:18.173Z,186.50
2018-11-11T02:42:47.950Z,179.33
2018-11-11T02:45:18.445Z,169.53
2018-11-11T02:47:47.641Z,159.50
2018-11-11T02:50:17.970Z,167.90
2018-11-11T02:52:47.608Z,172.33
2018-11-11T02:55:17.185Z,179.33
2018-11-11T02:57:47.297Z,178.87
2018-11-11T03:00:18.756Z,186.60
2018-11-11T03:02:48.937Z,185.97
2018-11-11T03:05:19.025Z,174.83
2018-11-11T03:07:48.142Z,169.27
2018-11-11T03:10:18.217Z,163.27
2018-11-11T03:12:48.427Z,174.93
2018-11-11T03:15:18.417Z,150.93
2018-11-11T03:17:47.613Z,143.10
2018-11-11T03:20:17.241Z,146.80
2018-11-11T03:22:46.717Z,147.87
2018-11-11T03:25:16.701Z,118.00
2018-11-11T03:27:45.824Z,125.17
2018-11-11T03:30:16.576Z,128.03
2018-11-11T03:32:46.055Z,130.67
2018-11-11T03:35:15.616Z,135.10
2018-11-11T03:37:45.928Z,149.60
2018-11-11T03:40:16.745Z,131.27
2018-11-11T03:42:46.334Z,135.53
2018-11-11T03:45:16.788Z,125.17
2018-11-11T03:47:46.932Z,126.47
2018-11-11T03:50:16.813Z,119.30
2018-11-11T03:52:46.269Z,116.67
2018-11-11T03:55:15.914Z,132.20
2018-11-11T03:57:45.029Z,118.40
2018-11-11T04:00:15.399Z,125.43
2018-11-11T04:02:44.933Z,134.27
2018-11-11T04:05:15.505Z,131.07
2018-11-11T04:07:44.685Z,132.43
2018-11-11T04:10:17.812Z,149.53
2018-11-11T04:12:47.397Z,129.10
2018-11-11T04:15:18.199Z,119.37
2018-11-11T04:17:47.667Z,121.13
2018-11-11T04:20:19.425Z,124.90
2018-11-11T04:22:48.689Z,113.70
2018-11-11T04:25:18.652Z,114.27
2018-11-11T04:27:48.173Z,104.63
2018-11-11T04:30:17.384Z,109.83
2018-11-11T04:32:46.681Z,110.40
2018-11-11T04:35:16.384Z,105.57
2018-11-11T04:37:45.493Z,94.10
2018-11-11T04:40:14.812Z,88.43
2018-11-11T04:42:44.392Z,100.50
2018-11-11T04:45:14.837Z,93.47
2018-11-11T04:47:44.981Z,88.60
2018-11-11T04:50:15.377Z,96.43
2018-11-11T04:52:45.478Z,90.03
2018-11-11T04:55:14.768Z,96.23
2018-11-11T04:57:44.241Z,97.80
2018-11-11T05:00:14.935Z,97.00
2018-11-11T05:02:44.096Z,102.57
2018-11-11T05:05:14.198Z,106.50
2018-11-11T05:07:43.373Z,93.53
2018-11-11T05:10:13.105Z,106.43
2018-11-11T05:12:42.441Z,105.57
2018-11-11T05:15:13.207Z,113.47
2018-11-11T05:17:42.862Z,118.07
2018-11-11T05:20:13.309Z,120.60
2018-11-11T05:22:43.202Z,128.37
2018-11-11T05:25:13.998Z,139.53
2018-11-11T05:27:43.920Z,149.77
2018-11-11T05:30:14.312Z,157.27
2018-11-11T05:32:43.429Z,193.63
2018-11-11T05:35:13.171Z,212.83
2018-11-11T05:37:42.903Z,187.77
2018-11-11T05:40:13.013Z,197.43
2018-11-11T05:42:43.386Z,215.00
2018-11-11T05:45:13.942Z,200.53
2018-11-11T05:47:43.688Z,193.17
2018-11-11T05:50:14.809Z,193.17
2018-11-11T05:52:45.370Z,182.20
2018-11-11T05:55:14.910Z,194.43
2018-11-11T05:57:44.018Z,173.47
2018-11-11T06:00:15.606Z,161.37
2018-11-11T06:02:45.192Z,178.70
2018-11-11T06:05:15.667Z,170.53
2018-11-11T06:07:45.142Z,147.57
2018-11-11T06:10:15.997Z,160.17
2018-11-11T06:12:45.705Z,157.07
2018-11-11T06:15:15.407Z,131.23
2018-11-11T06:17:44.667Z,140.03
2018-11-11T06:20:15.489Z,128.67
2018-11-11T06:22:44.671Z,123.07
2018-11-11T06:25:13.869Z,127.73
2018-11-11T06:27:43.556Z,120.87
2018-11-11T06:30:13.154Z,110.67
2018-11-11T06:32:43.081Z,108.30
2018-11-11T06:35:12.383Z,109.07
2018-11-11T06:37:41.820Z,112.70
2018-11-11T06:40:13.329Z,112.27
2018-11-11T06:42:42.977Z,108.87
2018-11-11T06:45:13.531Z,103.03
2018-11-11T06:47:43.455Z,95.17
2018-11-11T06:50:13.802Z,100.00
2018-11-11T06:52:43.541Z,95.63
2018-11-11T06:55:13.080Z,102.67
2018-11-11T06:57:42.237Z,103.10
2018-11-11T07:00:14.561Z,103.93
2018-11-11T07:02:55.013Z,103.03
2018-11-11T07:05:24.146Z,89.57
2018-11-11T07:07:53.299Z,93.97
2018-11-11T07:10:25.757Z,94.63
2018-11-11T07:12:54.914Z,98.83
2018-11-11T07:15:24.446Z,91.73
2018-11-11T07:17:53.661Z,87.43
2018-11-11T07:20:24.194Z,91.87
2018-11-11T07:22:53.417Z,95.17
2018-11-11T07:25:22.841Z,95.27
2018-11-11T07:27:52.349Z,97.87
2018-11-11T07:30:21.566Z,104.30
2018-11-11T07:32:50.960Z,105.57
2018-11-11T07:35:20.405Z,96.73
2018-11-11T07:37:49.514Z,117.63
2018-11-11T07:40:18.856Z,106.83
2018-11-11T07:42:48.193Z,107.80
2018-11-11T07:45:17.967Z,116.53
2018-11-11T07:47:48.021Z,107.90
2018-11-11T07:50:17.333Z,112.20
2018-11-11T07:52:48.009Z,113.43
2018-11-11T07:55:17.373Z,108.67
2018-11-11T07:57:47.488Z,119.03
2018-11-11T08:00:17.044Z,114.63
2018-11-11T08:02:47.037Z,108.33
2018-11-11T08:05:16.306Z,104.47
2018-11-11T08:07:46.301Z,109.57
2018-11-11T08:10:26.992Z,117.33
2018-11-11T08:12:56.991Z,104.60
2018-11-11T08:15:26.429Z,101.77
2018-11-11T08:17:55.656Z,103.27
2018-11-11T08:20:24.889Z,104.07
2018-11-11T08:22:54.197Z,100.73
2018-11-11T08:25:23.574Z,104.33
2018-11-11T08:27:53.177Z,93.43
2018-11-11T08:30:22.571Z,99.73
2018-11-11T08:32:52.267Z,106.00
2018-11-11T08:35:21.930Z,92.43
2018-11-11T08:37:51.079Z,104.13
2018-11-11T08:40:20.473Z,92.33
2018-11-11T08:42:49.605Z,104.40
2018-11-11T08:45:18.883Z,101.23
2018-11-11T08:47:48.078Z,103.60
2018-11-11T08:50:17.801Z,108.63
2018-11-11T08:52:46.905Z,110.13
2018-11-11T08:55:16.083Z,111.93
2018-11-11T08:57:45.330Z,106.00
2018-11-11T09:00:15.228Z,102.93
2018-11-11T09:02:44.940Z,107.50
2018-11-11T09:05:14.082Z,111.43
2018-11-11T09:07:43.309Z,104.73
2018-11-11T09:10:13.057Z,90.23
2018-11-11T09:12:42.333Z,112.47
2018-11-11T09:15:13.244Z,109.30
2018-11-11T09:17:42.929Z,111.53
2018-11-11T09:20:13.210Z,121.23
2018-11-11T09:22:42.940Z,114.93
2018-11-11T09:25:12.234Z,113.63
2018-11-11T09:27:42.594Z,112.83
2018-11-11T09:30:13.507Z,121.40
2018-11-11T09:32:43.926Z,122.90
2018-11-11T09:35:14.168Z,108.93
2018-11-11T09:37:43.550Z,187.73
2018-11-11T09:40:13.613Z,118.23
2018-11-11T09:42:43.061Z,108.77
2018-11-11T09:45:14.199Z,115.23
2018-11-11T09:47:43.987Z,109.93
2018-11-11T09:50:15.109Z,115.10
2018-11-11T09:52:44.476Z,106.60
2018-11-11T09:55:14.061Z,107.27
2018-11-11T09:57:43.186Z,102.53
2018-11-11T10:00:17.487Z,106.10
2018-11-11T10:02:53.638Z,120.42
2018-11-11T10:05:42.693Z,94.87
2018-11-11T10:08:23.583Z,106.03
2018-11-11T10:10:59.112Z,101.40
2018-11-11T10:13:32.377Z,91.73
2018-11-11T10:17:11.941Z,91.07
2018-11-11T10:19:49.249Z,98.25
2018-11-11T10:22:22.778Z,93.17
2018-11-11T10:24:57.113Z,80.77
2018-11-11T10:27:34.421Z,70.97
2018-11-11T10:32:14.278Z,64.40
2018-11-11T10:34:48.497Z,59.27
2018-11-11T10:37:21.337Z,61.07
2018-11-11T10:39:54.319Z,64.03
2018-11-11T10:43:00.317Z,68.50
2018-11-11T10:45:36.212Z,63.97
2018-11-11T10:48:09.057Z,65.93
2018-11-11T10:50:45.335Z,65.27
2018-11-11T10:53:14.930Z,64.93
2018-11-11T10:55:44.242Z,61.13
2018-11-11T10:58:13.368Z,62.47
2018-11-11T11:00:48.254Z,58.10
2018-11-11T11:03:22.774Z,69.83
2018-11-11T11:05:52.049Z,61.60
2018-11-11T11:08:21.161Z,60.90
2018-11-11T11:10:50.441Z,59.23
2018-11-11T11:13:19.936Z,61.20
2018-11-11T11:15:49.121Z,59.80
2018-11-11T11:18:18.237Z,60.20
2018-11-11T11:20:47.830Z,64.80
2018-11-11T11:23:17.124Z,66.97
2018-11-11T11:25:46.571Z,62.50
2018-11-11T11:28:15.913Z,57.10
2018-11-11T11:30:45.080Z,57.93
2018-11-11T11:33:14.199Z,53.33
2018-11-11T11:35:43.598Z,48.33
2018-11-11T11:38:12.798Z,49.60
2018-11-11T11:40:42.122Z,51.40
2018-11-11T11:43:11.373Z,49.90
2018-11-11T11:45:40.669Z,41.07
2018-11-11T11:48:09.906Z,48.03
2018-11-11T11:50:39.111Z,43.03
2018-11-11T11:53:08.217Z,39.63
2018-11-11T11:55:37.354Z,38.53
2018-11-11T11:58:18.174Z,38.33
2018-11-11T12:00:47.461Z,52.23
2018-11-11T12:03:16.957Z,30.73
2018-11-11T12:05:47.261Z,31.47
2018-11-11T12:08:16.549Z,30.77
2018-11-11T12:10:45.673Z,30.60
2018-11-11T12:13:15.757Z,24.53
2018-11-11T12:15:45.102Z,29.10
2018-11-11T12:18:14.301Z,30.93
2018-11-11T12:20:43.705Z,27.93
2018-11-11T12:23:13.179Z,26.83
2018-11-11T12:25:42.759Z,27.63
2018-11-11T12:28:12.173Z,28.47
2018-11-11T12:30:41.315Z,30.30
2018-11-11T12:33:10.442Z,29.63
2018-11-11T12:35:39.590Z,30.90
2018-11-11T12:38:08.674Z,30.10
2018-11-11T12:40:37.957Z,34.87
2018-11-11T12:43:07.629Z,34.63
2018-11-11T12:45:36.881Z,33.37
2018-11-11T12:48:06.350Z,38.27
2018-11-11T12:50:35.885Z,39.10
2018-11-11T12:53:05.097Z,39.50
2018-11-11T12:55:34.573Z,48.00
2018-11-11T12:58:03.718Z,44.93
2018-11-11T13:00:32.802Z,47.10
2018-11-11T13:03:01.986Z,45.07
2018-11-11T13:05:32.210Z,46.27
2018-11-11T13:08:01.402Z,43.23
2018-11-11T13:10:30.565Z,50.60
2018-11-11T13:12:59.813Z,52.67
2018-11-11T13:15:28.982Z,56.37
2018-11-11T13:17:58.801Z,48.77
2018-11-11T13:20:28.001Z,49.03
2018-11-11T13:22:57.434Z,51.47
2018-11-11T13:25:26.545Z,51.43
2018-11-11T13:27:56.161Z,45.53
2018-11-11T13:30:26.053Z,50.43
2018-11-11T13:32:55.381Z,48.57
2018-11-11T13:35:25.635Z,47.37
2018-11-11T13:37:55.471Z,57.57
2018-11-11T13:40:24.653Z,56.60
2018-11-11T13:42:53.850Z,52.53
2018-11-11T13:45:24.617Z,52.37
2018-11-11T13:47:55.056Z,55.33
2018-11-11T13:50:26.314Z,52.10
2018-11-11T13:52:55.861Z,49.67
2018-11-11T13:55:25.764Z,44.87
2018-11-11T13:57:54.933Z,47.27
2018-11-11T14:00:25.555Z,48.70
2018-11-11T14:02:54.937Z,42.87
2018-11-11T14:05:24.906Z,46.57
2018-11-11T14:07:54.429Z,41.70
2018-11-11T14:10:23.633Z,36.87
2018-11-11T14:12:53.557Z,41.13
2018-11-11T14:15:24.353Z,38.53
2018-11-11T14:17:55.213Z,42.20
2018-11-11T14:20:25.642Z,41.00
2018-11-11T14:22:56.029Z,42.80
2018-11-11T14:25:27.756Z,39.90
2018-11-11T14:27:57.061Z,43.13
2018-11-11T14:30:27.166Z,40.33
2018-11-11T14:32:57.640Z,36.53
2018-11-11T14:35:26.930Z,40.97
2018-11-11T14:37:56.254Z,35.27
2018-11-11T14:40:27.790Z,35.10
2018-11-11T14:42:57.013Z,33.43
2018-11-11T14:45:26.665Z,37.13
2018-11-11T14:47:56.815Z,35.17
2018-11-11T14:50:26.583Z,32.53
2018-11-11T14:52:55.956Z,28.03
2018-11-11T14:55:27.808Z,30.23
2018-11-11T14:57:57.908Z,31.80
2018-11-11T15:00:28.653Z,29.77
2018-11-11T15:03:04.925Z,31.00
2018-11-11T15:05:34.994Z,33.73
2018-11-11T15:08:04.289Z,35.33
2018-11-11T15:10:33.468Z,28.10
2018-11-11T15:13:02.743Z,26.13
2018-11-11T15:15:32.037Z,25.17
2018-11-11T15:18:01.982Z,26.17
2018-11-11T15:20:31.568Z,22.10
2018-11-11T15:23:00.712Z,21.57
2018-11-11T15:25:30.892Z,23.47
2018-11-11T15:28:00.388Z,22.47
2018-11-11T15:30:31.873Z,25.00
2018-11-11T15:33:01.647Z,27.57
2018-11-11T15:35:30.845Z,24.87
2018-11-11T15:38:00.004Z,27.77
2018-11-11T15:40:30.881Z,25.53
2018-11-11T15:43:00.352Z,31.87
2018-11-11T15:45:30.789Z,30.43
2018-11-11T15:48:00.376Z,29.40
2018-11-11T15:50:31.720Z,31.30
2018-11-11T15:53:04.101Z,30.33
2018-11-11T15:55:34.889Z,27.13
2018-11-11T15:58:04.066Z,32.80
2018-11-11T16:00:35.777Z,25.83
2018-11-11T16:03:05.142Z,29.13
2018-11-11T16:05:34.349Z,35.97
2018-11-11T16:08:03.865Z,29.97
2018-11-11T16:10:33.831Z,31.77
2018-11-11T16:13:03.078Z,26.47
2018-11-11T16:15:36.141Z,27.20
2018-11-11T16:18:07.427Z,26.43
2018-11-11T16:20:36.597Z,28.63
2018-11-11T16:23:06.824Z,28.90
2018-11-11T16:25:36.465Z,28.27
2018-11-11T16:28:06.029Z,31.53
2018-11-11T16:30:36.427Z,27.20
2018-11-11T16:33:06.905Z,31.27
2018-11-11T16:35:36.201Z,28.13
2018-11-11T16:38:06.349Z,32.70
2018-11-11T16:40:36.771Z,30.57
2018-11-11T16:43:06.165Z,32.70
2018-11-11T16:45:36.168Z,31.60
2018-11-11T16:48:06.116Z,33.83
2018-11-11T16:50:36.365Z,32.13
2018-11-11T16:53:07.273Z,30.83
2018-11-11T16:55:37.428Z,31.53
2018-11-11T16:58:06.620Z,37.07
2018-11-11T17:00:36.994Z,37.00
2018-11-11T17:03:07.235Z,33.33
2018-11-11T17:05:37.394Z,33.27
2018-11-11T17:08:06.981Z,31.47
2018-11-11T17:10:38.345Z,36.90
2018-11-11T17:13:10.406Z,41.60
2018-11-11T17:15:40.013Z,32.87
2018-11-11T17:18:09.117Z,34.50
2018-11-11T17:20:39.021Z,40.60
2018-11-11T17:23:08.694Z,35.33
2018-11-11T17:25:37.984Z,29.93
2018-11-11T17:28:07.551Z,32.77
2018-11-11T17:30:36.725Z,30.03
2018-11-11T17:33:06.397Z,32.13
2018-11-11T17:35:36.048Z,29.07
2018-11-11T17:38:05.806Z,31.00
2018-11-11T17:40:35.701Z,31.13
2018-11-11T17:43:04.881Z,30.53
2018-11-11T17:45:34.012Z,29.40
2018-11-11T17:48:03.185Z,34.90
2018-11-11T17:50:33.560Z,33.00
2018-11-11T17:53:04.453Z,31.80
2018-11-11T17:55:33.790Z,33.80
2018-11-11T17:58:03.097Z,34.60
2018-11-11T18:00:33.104Z,35.27
2018-11-11T18:03:03.201Z,46.90
2018-11-11T18:05:33.491Z,42.23
2018-11-11T18:08:02.735Z,49.83
2018-11-11T18:10:31.976Z,48.03
2018-11-11T18:13:01.284Z,51.47
2018-11-11T18:15:31.659Z,50.43
2018-11-11T18:18:00.989Z,50.53
2018-11-11T18:20:31.494Z,52.87
2018-11-11T18:23:02.137Z,54.43
2018-11-11T18:25:31.269Z,74.63
2018-11-11T18:28:00.827Z,74.97
2018-11-11T18:30:34.740Z,58.33
2018-11-11T18:33:03.877Z,60.27
2018-11-11T18:35:33.077Z,66.70
2018-11-11T18:38:02.441Z,62.83
2018-11-11T18:40:32.198Z,69.87
2018-11-11T18:43:01.434Z,68.23
2018-11-11T18:45:31.279Z,69.43
2018-11-11T18:48:00.491Z,69.97
2018-11-11T18:50:33.285Z,64.47
2018-11-11T18:53:03.252Z,68.33
2018-11-11T18:55:32.565Z,59.67
2018-11-11T18:58:01.871Z,68.03
2018-11-11T19:00:32.393Z,69.47
2018-11-11T19:03:01.550Z,72.20
2018-11-11T19:05:31.084Z,68.43
2018-11-11T19:08:00.602Z,69.53
2018-11-11T19:10:31.550Z,76.57
2018-11-11T19:13:02.173Z,63.83
2018-11-11T19:15:31.742Z,76.53
2018-11-11T19:18:00.879Z,66.70
2018-11-11T19:20:30.397Z,62.30
2018-11-11T19:22:59.925Z,69.13
2018-11-11T19:25:30.218Z,63.20
2018-11-11T19:28:01.234Z,54.97
2018-11-11T19:30:31.295Z,61.13
2018-11-11T19:33:00.533Z,54.30
2018-11-11T19:35:30.165Z,51.00
2018-11-11T19:37:59.801Z,56.90
2018-11-11T19:40:30.304Z,62.53
2018-11-11T19:43:00.533Z,59.50
2018-11-11T19:45:30.733Z,66.63
2018-11-11T19:47:59.992Z,64.30
2018-11-11T19:50:29.977Z,64.80
2018-11-11T19:52:59.897Z,63.63
2018-11-11T19:55:29.888Z,77.60
2018-11-11T19:57:59.304Z,69.23
2018-11-11T20:00:30.049Z,68.57
2018-11-11T20:03:00.389Z,74.00
2018-11-11T20:05:29.637Z,62.27
2018-11-11T20:07:59.896Z,63.43
2018-11-11T20:10:30.138Z,67.77
2018-11-11T20:12:59.782Z,61.27
2018-11-11T20:15:30.682Z,56.17
2018-11-11T20:18:00.383Z,56.87
2018-11-11T20:20:37.609Z,50.60
2018-11-11T20:23:07.417Z,50.27
2018-11-11T20:25:36.618Z,49.47
2018-11-11T20:28:06.605Z,48.40
2018-11-11T20:30:37.165Z,52.77
2018-11-11T20:33:06.899Z,53.30
2018-11-11T20:35:36.191Z,54.37
2018-11-11T20:38:05.580Z,52.83
2018-11-11T20:40:35.249Z,51.90
2018-11-11T20:43:04.501Z,57.17
2018-11-11T20:45:34.538Z,67.67
2018-11-11T20:48:03.957Z,64.03
2018-11-11T20:50:33.917Z,65.33
2018-11-11T20:53:04.471Z,60.30
2018-11-11T20:55:33.865Z,64.10
2018-11-11T20:58:03.281Z,74.00
2018-11-11T21:00:34.259Z,60.97
2018-11-11T21:03:03.562Z,61.30
2018-11-11T21:05:32.857Z,58.37
2018-11-11T21:08:02.347Z,60.37
2018-11-11T21:10:31.757Z,55.63
2018-11-11T21:13:01.238Z,60.87
2018-11-11T21:15:31.799Z,61.67
2018-11-11T21:18:00.918Z,75.17
2018-11-11T21:20:31.645Z,67.10
2018-11-11T21:23:00.759Z,75.43
2018-11-11T21:25:29.971Z,71.50
2018-11-11T21:27:59.332Z,87.50
2018-11-11T21:30:30.745Z,85.30
2018-11-11T21:32:59.921Z,87.73
2018-11-11T21:35:29.161Z,90.73
2018-11-11T21:37:58.537Z,93.10
2018-11-11T21:40:28.487Z,92.90
2018-11-11T21:42:57.921Z,105.67
2018-11-11T21:45:28.071Z,110.57
2018-11-11T21:47:57.317Z,130.00
2018-11-11T21:50:27.456Z,115.37
2018-11-11T21:53:05.872Z,132.37
2018-11-11T21:55:34.905Z,138.77
2018-11-11T21:58:04.261Z,164.20
2018-11-11T22:00:34.569Z,144.77
2018-11-11T22:03:03.907Z,147.00
2018-11-11T22:05:33.112Z,156.57
2018-11-11T22:08:02.307Z,152.43
2018-11-11T22:10:31.461Z,146.60
2018-11-11T22:13:00.558Z,150.03
2018-11-11T22:15:30.256Z,163.43
2018-11-11T22:17:59.857Z,184.03
2018-11-11T22:20:29.054Z,178.27
2018-11-11T22:22:58.173Z,172.93
2018-11-11T22:25:27.485Z,162.33
2018-11-11T22:27:56.713Z,161.00
2018-11-11T22:30:25.904Z,161.50
2018-11-11T22:32:55.065Z,161.13
2018-11-11T22:35:24.252Z,153.00
2018-11-11T22:37:53.419Z,147.50
2018-11-11T22:40:22.589Z,153.30
2018-11-11T22:42:51.740Z,152.70
2018-11-11T22:45:20.978Z,157.10
2018-11-11T22:47:50.125Z,154.83
2018-11-11T22:50:19.931Z,169.43
2018-11-11T22:52:49.449Z,175.17
2018-11-11T22:55:18.773Z,175.90
2018-11-11T22:57:47.878Z,178.70
2018-11-11T23:00:22.441Z,169.20
2018-11-11T23:02:52.149Z,185.07
2018-11-11T23:05:22.255Z,199.67
2018-11-11T23:07:51.662Z,197.70
2018-11-11T23:10:21.169Z,190.17
2018-11-11T23:12:50.814Z,195.63
2018-11-11T23:15:21.321Z,204.97
2018-11-11T23:17:50.849Z,208.30
2018-11-11T23:20:21.029Z,215.63
2018-11-11T23:22:50.472Z,211.57
2018-11-11T23:25:19.798Z,186.27
2018-11-11T23:27:48.964Z,176.27
2018-11-11T23:30:20.727Z,167.50
2018-11-11T23:32:50.297Z,182.37
2018-11-11T23:35:19.461Z,175.60
2018-11-11T23:37:49.034Z,163.77
2018-11-11T23:40:19.288Z,162.93
2018-11-11T23:42:49.078Z,186.77
2018-11-11T23:45:18.367Z,156.27
2018-11-11T23:47:47.569Z,169.63
2018-11-11T23:50:18.423Z,156.30
2018-11-11T23:52:47.969Z,151.93
2018-11-11T23:55:18.278Z,180.03
2018-11-11T23:57:47.593Z,156.97
